Time;durP1;ratioP1;P1;durP2;ratioP2;P2;SDS_P1;SDS_P2;PMS_P1;PMS_P2;Temp;Humidity;BMP_temperature;BMP_pressure;BME280_temperature;BME280_humidity;BME280_pressure;Samples;Min_cycle;Max_cycle;Signal;HPM_P1;HPM_P2
2022/01/03 00:01:16;;;;;;;2.50;2.22;;;12.90;99.90;;;;;;5096812;28;20670;-68
2022/01/03 00:03:44;;;;;;;2.20;1.80;;;12.90;99.90;;;;;;5096780;28;20206;-68
2022/01/03 00:06:12;;;;;;;2.90;1.90;;;12.90;99.90;;;;;;5096397;28;20237;-69
2022/01/03 00:08:42;;;;;;;3.10;2.17;;;13.00;99.90;;;;;;5096973;28;20332;-69
2022/01/03 00:11:11;;;;;;;2.40;2.03;;;13.00;99.90;;;;;;5096891;28;20206;-68
2022/01/03 00:13:41;;;;;;;3.53;1.88;;;13.00;99.90;;;;;;5096831;28;20202;-68
2022/01/03 00:16:08;;;;;;;2.00;1.90;;;13.00;99.90;;;;;;5096480;28;20554;-68
2022/01/03 00:18:35;;;;;;;3.88;2.10;;;13.00;99.90;;;;;;5096765;28;20238;-68
2022/01/03 00:21:02;;;;;;;1.98;1.40;;;13.00;99.90;;;;;;5096650;28;20563;-68
2022/01/03 00:23:33;;;;;;;1.77;1.67;;;13.10;99.90;;;;;;5096659;28;20308;-70
2022/01/03 00:26:02;;;;;;;2.53;2.00;;;13.00;99.90;;;;;;5096238;28;20230;-68
2022/01/03 00:28:35;;;;;;;3.65;1.80;;;13.10;99.90;;;;;;5095760;28;20201;-68
2022/01/03 00:31:03;;;;;;;3.33;1.52;;;13.10;99.90;;;;;;5096562;28;20198;-70
2022/01/03 00:33:30;;;;;;;3.15;1.80;;;13.10;99.90;;;;;;5096489;28;20198;-69
2022/01/03 00:36:02;;;;;;;2.03;1.73;;;13.10;99.90;;;;;;5095939;28;20571;-68
2022/01/03 00:38:32;;;;;;;2.55;1.67;;;13.10;99.90;;;;;;5096408;28;20183;-69
2022/01/03 00:41:00;;;;;;;2.88;1.90;;;13.10;99.90;;;;;;5096319;28;20201;-68
2022/01/03 00:43:27;;;;;;;2.45;1.60;;;13.10;99.90;;;;;;5096284;28;20247;-68
2022/01/03 00:45:54;;;;;;;2.80;1.65;;;13.10;99.90;;;;;;5095774;28;20729;-68
2022/01/03 00:48:21;;;;;;;3.50;1.98;;;13.20;99.90;;;;;;5095831;28;20198;-68
2022/01/03 00:50:48;;;;;;;2.00;1.90;;;13.20;99.90;;;;;;5096065;28;20202;-68
2022/01/03 00:53:15;;;;;;;4.43;1.95;;;13.20;99.90;;;;;;5095999;28;20665;-68
2022/01/03 00:56:02;;;;;;;2.60;1.60;;;13.20;99.90;;;;;;5095959;28;20293;-68
2022/01/03 00:58:34;;;;;;;2.20;1.52;;;13.20;99.90;;;;;;5095721;28;20194;-68
2022/01/03 01:01:03;;;;;;;2.28;1.60;;;13.20;99.90;;;;;;5095639;28;20210;-68
2022/01/03 01:03:35;;;;;;;2.00;1.80;;;13.20;99.90;;;;;;5095653;28;20296;-68
2022/01/03 01:06:04;;;;;;;3.45;1.85;;;13.20;99.90;;;;;;5095341;28;20225;-68
2022/01/03 01:08:34;;;;;;;3.55;1.92;;;13.20;99.90;;;;;;5095471;28;20293;-68
2022/01/03 01:11:04;;;;;;;3.80;1.70;;;13.20;99.90;;;;;;5095421;28;20209;-68
2022/01/03 01:13:31;;;;;;;2.78;1.73;;;13.20;99.90;;;;;;5095697;28;20207;-68
2022/01/03 01:15:59;;;;;;;1.98;1.38;;;13.20;99.90;;;;;;5095163;28;20308;-68
2022/01/03 01:18:26;;;;;;;2.10;1.50;;;13.10;99.90;;;;;;5095632;28;20206;-68
2022/01/03 01:20:53;;;;;;;3.63;1.88;;;13.10;99.90;;;;;;5095462;28;20202;-68
2022/01/03 01:23:20;;;;;;;1.50;1.40;;;13.10;99.90;;;;;;5096039;28;20305;-68
2022/01/03 01:28:39;;;;;;;5.60;1.83;;;13.20;99.90;;;;;;5020260;28;20303;-68
2022/01/03 01:31:06;;;;;;;2.42;1.63;;;13.10;99.90;;;;;;5095411;28;20278;-68
2022/01/03 01:33:35;;;;;;;3.55;1.85;;;13.10;99.90;;;;;;5094983;28;20613;-68
2022/01/03 01:36:05;;;;;;;2.45;1.73;;;13.10;99.90;;;;;;5095061;28;20568;-68
2022/01/03 01:38:35;;;;;;;2.50;1.58;;;13.10;99.90;;;;;;5095196;28;20198;-68
2022/01/03 01:41:05;;;;;;;4.30;2.03;;;13.10;99.90;;;;;;5094074;28;20583;-68
2022/01/03 01:43:37;;;;;;;4.22;2.00;;;13.10;99.90;;;;;;5095019;28;20206;-68
2022/01/03 01:46:09;;;;;;;3.78;1.70;;;13.10;99.90;;;;;;5094553;28;20694;-68
2022/01/03 01:48:38;;;;;;;4.50;1.90;;;13.10;99.90;;;;;;5095097;28;20187;-68
2022/01/03 01:51:09;;;;;;;2.67;1.70;;;13.10;99.90;;;;;;5095033;28;20198;-68
2022/01/03 01:53:41;;;;;;;3.20;2.20;;;13.10;99.90;;;;;;5094968;28;20191;-68
2022/01/03 01:56:15;;;;;;;2.97;1.83;;;13.10;99.90;;;;;;5094622;28;20214;-68
2022/01/03 01:58:53;;;;;;;3.58;1.80;;;13.10;99.90;;;;;;5094795;28;20552;-68
2022/01/03 02:01:22;;;;;;;4.05;2.17;;;13.10;99.90;;;;;;5094825;28;20265;-68
2022/01/03 02:03:58;;;;;;;2.60;1.70;;;13.00;99.90;;;;;;5094660;28;20198;-68
2022/01/03 02:06:30;;;;;;;4.40;1.75;;;13.00;99.90;;;;;;5094592;28;20232;-68
2022/01/03 02:09:05;;;;;;;2.03;1.70;;;13.00;99.90;;;;;;5094671;28;20194;-68
2022/01/03 02:11:48;;;;;;;2.05;1.88;;;13.00;99.90;;;;;;5094597;28;20212;-68
2022/01/03 02:14:15;;;;;;;3.08;1.60;;;12.90;99.90;;;;;;5094533;28;20209;-68
2022/01/03 02:16:44;;;;;;;2.08;1.85;;;12.90;99.90;;;;;;5094274;28;20250;-68
2022/01/03 02:19:11;;;;;;;5.15;1.95;;;12.90;99.90;;;;;;5094462;28;20280;-68
2022/01/03 02:21:40;;;;;;;3.47;1.90;;;12.90;99.90;;;;;;5094407;28;20631;-68
2022/01/03 02:24:08;;;;;;;3.75;2.20;;;12.90;99.90;;;;;;5094300;28;20206;-68
2022/01/03 02:26:35;;;;;;;3.50;2.00;;;12.90;99.90;;;;;;5094047;28;20562;-68
2022/01/03 02:29:02;;;;;;;2.90;1.80;;;12.90;99.90;;;;;;5094252;28;20220;-68
2022/01/03 02:31:29;;;;;;;3.00;1.80;;;12.90;99.90;;;;;;5094263;28;20285;-68
2022/01/03 02:33:56;;;;;;;2.03;1.83;;;12.90;99.90;;;;;;5093879;28;20319;-68
2022/01/03 02:36:23;;;;;;;2.00;1.80;;;12.80;99.90;;;;;;5093583;28;20224;-68
2022/01/03 02:38:51;;;;;;;2.78;2.30;;;12.90;99.90;;;;;;5093812;28;20678;-68
2022/01/03 02:41:18;;;;;;;2.97;1.50;;;12.80;99.90;;;;;;5094040;28;20205;-68
2022/01/03 02:43:45;;;;;;;3.65;1.88;;;12.80;99.90;;;;;;5093737;28;20668;-68
2022/01/03 02:46:12;;;;;;;4.30;1.95;;;12.80;99.90;;;;;;5093681;28;20228;-68
2022/01/03 02:48:39;;;;;;;1.63;1.52;;;12.80;99.90;;;;;;5094031;28;20204;-67
2022/01/03 02:51:05;;;;;;;3.42;1.80;;;12.80;99.90;;;;;;5093658;28;20289;-68
2022/01/03 02:53:32;;;;;;;3.38;1.90;;;12.80;99.90;;;;;;5093803;28;20209;-68
2022/01/03 02:56:00;;;;;;;1.50;1.40;;;12.80;99.90;;;;;;5093437;28;20206;-68
2022/01/03 02:58:27;;;;;;;7.13;2.42;;;12.80;99.90;;;;;;5093891;28;20201;-68
2022/01/03 03:00:54;;;;;;;3.03;2.15;;;12.80;99.90;;;;;;5093515;28;20221;-68
2022/01/03 03:03:24;;;;;;;3.47;2.08;;;12.80;99.90;;;;;;5093870;28;20225;-68
2022/01/03 03:05:51;;;;;;;3.55;2.03;;;12.80;99.90;;;;;;5093565;28;20288;-68
2022/01/03 03:08:18;;;;;;;3.25;1.80;;;12.80;99.90;;;;;;5093773;28;20657;-68
2022/01/03 03:10:46;;;;;;;2.35;1.95;;;12.80;99.90;;;;;;5093760;28;20202;-68
2022/01/03 03:13:14;;;;;;;2.75;1.55;;;12.80;99.90;;;;;;5093716;28;20208;-68
2022/01/03 03:15:41;;;;;;;3.00;1.83;;;12.70;99.90;;;;;;5093444;28;20210;-68
2022/01/03 03:18:09;;;;;;;3.33;1.65;;;12.70;99.90;;;;;;5093595;28;20248;-68
2022/01/03 03:20:37;;;;;;;4.70;2.05;;;12.70;99.90;;;;;;5093690;28;20213;-68
2022/01/03 03:23:04;;;;;;;2.83;1.70;;;12.70;99.90;;;;;;5093610;28;20244;-68
2022/01/03 03:25:32;;;;;;;1.70;1.60;;;12.60;99.90;;;;;;5093461;28;20208;-68
2022/01/03 03:28:01;;;;;;;3.05;1.88;;;12.70;99.90;;;;;;5093188;28;20707;-68
2022/01/03 03:30:31;;;;;;;2.35;1.92;;;12.60;99.90;;;;;;5093555;28;20206;-68
2022/01/03 03:33:04;;;;;;;2.53;1.85;;;12.60;99.90;;;;;;5093557;28;20206;-68
2022/01/03 03:35:31;;;;;;;3.78;1.63;;;12.60;99.90;;;;;;5093365;28;20216;-68
2022/01/03 03:37:58;;;;;;;2.15;1.85;;;12.50;99.90;;;;;;5093429;28;20222;-68
2022/01/03 03:40:25;;;;;;;2.08;1.70;;;12.50;99.90;;;;;;5093612;28;20208;-68
2022/01/03 03:42:52;;;;;;;2.08;1.67;;;12.50;99.90;;;;;;5093385;28;20301;-68
2022/01/03 03:45:20;;;;;;;1.75;1.65;;;12.40;99.90;;;;;;5093280;28;20279;-68
2022/01/03 03:47:48;;;;;;;2.95;1.50;;;12.40;99.90;;;;;;5093328;28;20226;-68
2022/01/03 03:50:15;;;;;;;4.80;1.95;;;12.40;99.90;;;;;;5093617;28;20289;-68
2022/01/03 03:52:43;;;;;;;3.30;1.48;;;12.40;99.90;;;;;;5093295;28;20225;-68
2022/01/03 03:55:10;;;;;;;2.65;1.50;;;12.30;99.90;;;;;;5093107;28;20565;-68
2022/01/03 03:57:37;;;;;;;2.10;1.20;;;12.40;99.90;;;;;;5092956;28;20229;-68
2022/01/03 04:00:06;;;;;;;3.53;1.75;;;12.30;99.90;;;;;;5092938;28;20210;-68
2022/01/03 04:02:33;;;;;;;2.70;1.88;;;12.30;99.90;;;;;;5093231;28;20248;-68
2022/01/03 04:05:02;;;;;;;3.33;1.42;;;12.30;99.90;;;;;;5096538;28;20733;-68
2022/01/03 04:07:29;;;;;;;2.78;1.70;;;12.30;99.90;;;;;;5096463;28;20718;-68
2022/01/03 04:09:56;;;;;;;4.15;1.50;;;12.20;99.90;;;;;;5096908;28;20197;-68
2022/01/03 04:12:23;;;;;;;3.63;1.50;;;12.20;99.90;;;;;;5096718;28;20205;-68
2022/01/03 04:14:50;;;;;;;4.20;1.85;;;12.20;99.90;;;;;;5096792;28;20529;-68
2022/01/03 04:17:17;;;;;;;1.95;1.40;;;12.20;99.90;;;;;;5096749;28;20579;-68
2022/01/03 04:19:44;;;;;;;1.35;1.25;;;12.20;99.90;;;;;;5096728;28;20298;-68
2022/01/03 04:22:12;;;;;;;3.35;1.63;;;12.20;99.90;;;;;;5096655;28;20198;-68
2022/01/03 04:24:39;;;;;;;2.30;1.40;;;12.20;99.90;;;;;;5096528;28;20212;-68
2022/01/03 04:27:06;;;;;;;8.02;4.13;;;12.10;99.90;;;;;;5096455;28;20230;-68
2022/01/03 04:29:33;;;;;;;4.70;2.63;;;12.20;99.90;;;;;;5096269;28;20202;-68
2022/01/03 04:31:59;;;;;;;3.08;1.65;;;12.10;99.90;;;;;;5096456;28;20198;-68
2022/01/03 04:34:26;;;;;;;3.75;1.45;;;12.10;99.90;;;;;;5096358;28;20297;-68
2022/01/03 04:36:53;;;;;;;3.00;1.42;;;12.10;99.90;;;;;;5096449;28;20587;-68
2022/01/03 04:39:21;;;;;;;2.50;1.52;;;12.10;99.90;;;;;;5096111;28;20686;-68
2022/01/03 04:41:48;;;;;;;3.95;1.52;;;12.10;99.90;;;;;;5096310;28;20206;-68
2022/01/03 04:44:15;;;;;;;5.72;1.52;;;12.00;99.90;;;;;;5096282;28;20208;-68
2022/01/03 04:46:43;;;;;;;2.95;1.38;;;12.10;99.90;;;;;;5096130;28;20244;-68
2022/01/03 04:49:10;;;;;;;2.67;1.60;;;12.10;99.90;;;;;;5096277;28;20217;-68
2022/01/03 04:51:37;;;;;;;2.90;1.50;;;12.10;99.90;;;;;;5096503;28;20209;-68
2022/01/03 04:54:05;;;;;;;2.95;1.90;;;12.10;99.90;;;;;;5096205;28;20228;-68
2022/01/03 04:56:34;;;;;;;1.67;1.50;;;12.10;99.90;;;;;;5095602;28;20222;-68
2022/01/03 04:59:01;;;;;;;4.32;1.75;;;12.20;99.90;;;;;;5096185;28;20338;-68
2022/01/03 05:01:28;;;;;;;3.85;1.60;;;12.20;99.90;;;;;;5096216;28;20544;-68
2022/01/03 05:03:55;;;;;;;4.95;1.83;;;12.30;99.90;;;;;;5096078;28;20293;-68
2022/01/03 05:06:22;;;;;;;3.83;2.10;;;12.10;99.90;;;;;;5095760;28;20576;-68
2022/01/03 05:08:48;;;;;;;3.35;1.95;;;11.70;99.90;;;;;;5095890;28;20313;-68
2022/01/03 05:11:15;;;;;;;8.13;2.00;;;11.40;99.90;;;;;;5095821;28;20208;-68
2022/01/03 05:13:44;;;;;;;2.00;1.17;;;11.30;99.90;;;;;;5095626;28;20202;-68
2022/01/03 05:16:11;;;;;;;2.85;1.75;;;11.30;99.90;;;;;;5095503;28;20295;-68
2022/01/03 05:18:38;;;;;;;5.47;1.70;;;11.20;99.90;;;;;;5095396;28;20679;-68
2022/01/03 05:21:05;;;;;;;5.57;1.80;;;11.20;99.90;;;;;;5095382;28;20202;-68
2022/01/03 05:23:32;;;;;;;4.15;1.55;;;11.20;99.90;;;;;;5095259;28;20206;-68
2022/01/03 05:25:59;;;;;;;4.50;1.50;;;11.20;99.90;;;;;;5095082;28;20210;-68
2022/01/03 05:28:25;;;;;;;5.15;1.30;;;11.20;99.90;;;;;;5095099;28;20587;-68
2022/01/03 05:30:54;;;;;;;5.38;1.92;;;11.20;99.90;;;;;;5095477;28;20198;-68
2022/01/03 05:33:21;;;;;;;4.85;1.75;;;11.20;99.90;;;;;;5095201;28;20213;-68
2022/01/03 05:35:48;;;;;;;2.88;1.75;;;11.20;99.90;;;;;;5094954;28;20208;-68
2022/01/03 05:38:14;;;;;;;3.58;2.20;;;11.10;99.90;;;;;;5095204;28;20224;-68
2022/01/03 05:40:41;;;;;;;4.88;2.10;;;11.20;99.90;;;;;;5095177;28;20209;-68
2022/01/03 05:43:10;;;;;;;6.70;2.25;;;11.20;99.90;;;;;;5094976;28;20689;-68
2022/01/03 05:45:37;;;;;;;3.22;1.60;;;11.20;99.90;;;;;;5094894;28;20292;-68
2022/01/03 05:48:06;;;;;;;3.35;2.10;;;11.20;99.90;;;;;;5094660;28;20226;-68
2022/01/03 05:50:32;;;;;;;4.55;1.90;;;11.20;99.90;;;;;;5095044;28;20305;-68
2022/01/03 05:52:59;;;;;;;4.15;1.80;;;11.20;99.90;;;;;;5094858;28;20208;-68
2022/01/03 05:55:26;;;;;;;3.70;1.50;;;11.20;99.90;;;;;;5094870;28;20202;-68
2022/01/03 05:57:53;;;;;;;2.55;1.73;;;11.10;99.90;;;;;;5094494;28;20764;-68
2022/01/03 06:00:22;;;;;;;4.00;1.90;;;11.10;99.90;;;;;;5094528;28;20218;-68
2022/01/03 06:02:53;;;;;;;4.72;2.15;;;11.10;99.90;;;;;;5094838;28;20241;-68
2022/01/03 06:05:39;;;;;;;3.75;2.22;;;11.00;99.90;;;;;;5094982;28;20217;-68
2022/01/03 06:08:06;;;;;;;7.38;2.20;;;11.00;99.90;;;;;;5094320;28;20230;-68
2022/01/03 06:10:34;;;;;;;5.65;1.98;;;11.00;99.90;;;;;;5094427;28;20202;-68
2022/01/03 06:13:00;;;;;;;5.95;2.25;;;11.10;99.90;;;;;;5094285;28;20664;-68
2022/01/03 06:15:27;;;;;;;4.75;1.90;;;11.10;99.90;;;;;;5094328;28;20209;-68
2022/01/03 06:17:54;;;;;;;6.00;2.55;;;11.20;99.90;;;;;;5094453;28;20225;-68
2022/01/03 06:20:22;;;;;;;2.22;1.95;;;11.20;99.90;;;;;;5094482;28;20296;-68
2022/01/03 06:22:49;;;;;;;3.85;2.10;;;11.10;99.90;;;;;;5094471;28;20208;-68
2022/01/03 06:25:16;;;;;;;5.60;2.25;;;11.10;99.90;;;;;;5093903;28;20204;-68
2022/01/03 06:27:43;;;;;;;4.93;2.10;;;11.20;99.90;;;;;;5094047;28;20309;-68
2022/01/03 06:30:12;;;;;;;8.00;2.15;;;11.20;99.90;;;;;;5094326;28;20205;-68
2022/01/03 06:32:39;;;;;;;5.18;2.30;;;11.00;99.90;;;;;;5094179;28;20726;-68
2022/01/03 06:35:06;;;;;;;4.50;2.00;;;11.00;99.90;;;;;;5093881;28;20202;-68
2022/01/03 06:37:35;;;;;;;5.47;2.28;;;11.00;99.90;;;;;;5094216;28;20308;-68
2022/01/03 06:40:02;;;;;;;5.88;2.40;;;10.90;99.90;;;;;;5094000;28;20627;-69
2022/01/03 06:42:28;;;;;;;4.00;1.95;;;10.80;99.90;;;;;;5093907;28;20202;-68
2022/01/03 06:44:55;;;;;;;3.13;2.05;;;10.80;99.90;;;;;;5093866;28;20293;-68
2022/01/03 06:47:22;;;;;;;3.58;2.03;;;10.80;99.90;;;;;;5093995;28;20313;-68
2022/01/03 06:49:49;;;;;;;3.88;2.38;;;10.90;99.90;;;;;;5094080;28;20224;-68
2022/01/03 06:52:16;;;;;;;4.75;2.45;;;10.80;99.90;;;;;;5094025;28;20204;-68
2022/01/03 06:54:45;;;;;;;4.22;1.98;;;10.80;99.90;;;;;;5093613;28;20292;-68
2022/01/03 06:57:12;;;;;;;3.40;2.10;;;10.90;99.90;;;;;;5093858;28;20218;-68
2022/01/03 06:59:39;;;;;;;2.53;2.17;;;10.90;99.90;;;;;;5093687;28;20216;-68
2022/01/03 07:02:06;;;;;;;5.43;2.05;;;10.90;99.90;;;;;;5093894;28;20292;-68
2022/01/03 07:04:33;;;;;;;4.50;2.17;;;10.90;99.90;;;;;;5093788;28;20279;-68
2022/01/03 07:07:00;;;;;;;6.70;2.40;;;11.00;99.90;;;;;;5093866;28;20248;-68
2022/01/03 07:09:27;;;;;;;4.00;2.42;;;11.00;99.90;;;;;;5093728;28;20224;-68
2022/01/03 07:11:55;;;;;;;5.05;2.50;;;10.90;99.90;;;;;;5093831;28;20238;-68
2022/01/03 07:19:55;;;;;;;4.07;2.90;;;10.70;99.90;;;;;;5094217;28;20540;-68
2022/01/03 07:22:23;;;;;;;6.80;2.38;;;10.70;99.90;;;;;;5094065;28;20552;-68
2022/01/03 07:24:51;;;;;;;3.33;2.65;;;10.70;99.90;;;;;;5093733;28;20202;-68
2022/01/03 07:27:20;;;;;;;5.22;1.92;;;10.70;99.90;;;;;;5093782;28;20718;-68
2022/01/03 07:29:48;;;;;;;7.13;2.72;;;10.70;99.90;;;;;;5093759;28;20236;-68
2022/01/03 07:32:15;;;;;;;6.22;2.50;;;10.70;99.90;;;;;;5093542;28;20737;-68
2022/01/03 07:34:42;;;;;;;6.22;2.60;;;10.70;99.90;;;;;;5093173;28;20758;-68
2022/01/03 07:37:09;;;;;;;3.20;1.83;;;10.80;99.90;;;;;;5094325;28;20228;-68
2022/01/03 07:39:36;;;;;;;5.68;2.05;;;10.80;99.90;;;;;;5097508;28;20204;-68
2022/01/03 07:42:04;;;;;;;7.25;2.10;;;10.90;99.90;;;;;;5097388;28;20201;-69
2022/01/03 07:44:32;;;;;;;5.18;2.20;;;10.80;99.90;;;;;;5097243;28;20204;-68
2022/01/03 07:46:59;;;;;;;5.63;2.40;;;10.80;99.90;;;;;;5097109;28;20218;-68
2022/01/03 07:49:26;;;;;;;6.50;2.70;;;10.80;99.90;;;;;;5097026;28;20218;-68
2022/01/03 07:51:53;;;;;;;7.18;2.63;;;10.80;99.90;;;;;;5097306;28;20197;-68
2022/01/03 07:54:20;;;;;;;3.28;1.95;;;10.90;99.90;;;;;;5097227;28;20239;-68
2022/01/03 07:56:47;;;;;;;6.65;3.17;;;10.90;99.90;;;;;;5097159;28;20225;-68
2022/01/03 07:59:13;;;;;;;4.13;2.35;;;10.90;99.90;;;;;;5097024;28;20738;-69
2022/01/03 08:01:42;;;;;;;7.65;2.50;;;10.80;99.90;;;;;;5097108;28;20208;-68
2022/01/03 08:04:09;;;;;;;6.18;3.30;;;10.80;99.90;;;;;;5096957;28;20293;-68
2022/01/03 08:06:35;;;;;;;18.17;13.82;;;10.80;99.90;;;;;;5096520;28;20237;-68
2022/01/03 08:09:02;;;;;;;42.25;37.95;;;10.80;99.90;;;;;;5096613;28;20722;-68
2022/01/03 08:11:29;;;;;;;7.80;4.10;;;10.90;99.90;;;;;;5096949;28;20206;-68
2022/01/03 08:13:56;;;;;;;4.80;2.28;;;10.90;99.90;;;;;;5096803;28;20632;-68
2022/01/03 08:16:23;;;;;;;8.32;2.35;;;10.90;99.90;;;;;;5096553;28;20229;-68
2022/01/03 08:18:51;;;;;;;4.05;2.33;;;10.80;99.90;;;;;;5096768;28;20195;-68
2022/01/03 08:21:18;;;;;;;3.85;3.30;;;10.50;99.90;;;;;;5096711;28;20237;-68
2022/01/03 08:23:45;;;;;;;19.90;17.05;;;10.50;99.90;;;;;;5096399;28;20209;-68
2022/01/03 08:26:11;;;;;;;12.30;9.13;;;10.60;99.90;;;;;;5096495;28;20206;-69
2022/01/03 08:28:38;;;;;;;10.23;7.88;;;10.70;99.90;;;;;;5096211;28;20230;-68
2022/01/03 08:31:05;;;;;;;16.92;12.80;;;10.80;99.90;;;;;;5096378;28;20209;-68
2022/01/03 08:33:33;;;;;;;14.65;8.15;;;10.80;99.90;;;;;;5096489;28;20297;-68
2022/01/03 08:36:01;;;;;;;10.13;9.15;;;10.80;99.90;;;;;;5096172;28;20210;-68
2022/01/03 08:38:28;;;;;;;22.60;17.77;;;10.90;99.90;;;;;;5096422;28;20300;-68
2022/01/03 08:40:55;;;;;;;27.40;22.88;;;11.00;99.90;;;;;;5096312;28;20198;-68
2022/01/03 08:43:23;;;;;;;8.80;7.32;;;11.00;99.90;;;;;;5096194;28;20208;-68
2022/01/03 08:45:50;;;;;;;8.63;5.38;;;11.00;99.90;;;;;;5095761;28;20225;-68
2022/01/03 08:48:17;;;;;;;7.75;4.07;;;11.10;99.90;;;;;;5095833;28;20222;-68
2022/01/03 08:50:44;;;;;;;7.90;5.03;;;11.10;99.90;;;;;;5095785;28;20300;-69
2022/01/03 08:53:12;;;;;;;8.30;4.75;;;11.20;99.90;;;;;;5097219;28;20288;-69
2022/01/03 08:55:40;;;;;;;7.68;4.75;;;11.10;99.90;;;;;;5095690;28;20675;-68
2022/01/03 08:58:07;;;;;;;8.40;4.95;;;11.10;99.90;;;;;;5096082;28;20252;-69
2022/01/03 09:00:35;;;;;;;8.98;5.20;;;10.90;99.90;;;;;;5096608;28;20305;-69
2022/01/03 09:03:02;;;;;;;8.00;5.32;;;10.80;99.90;;;;;;5096359;28;20240;-69
2022/01/03 09:05:32;;;;;;;9.82;4.90;;;10.90;99.90;;;;;;5096446;28;20656;-71
2022/01/03 09:07:58;;;;;;;10.88;6.35;;;10.80;99.90;;;;;;5096204;28;20221;-69
2022/01/03 09:10:27;;;;;;;8.77;4.72;;;10.90;99.90;;;;;;5095490;28;20225;-69
2022/01/03 09:12:53;;;;;;;7.78;5.22;;;10.90;99.90;;;;;;5095637;28;20748;-69
2022/01/03 09:15:21;;;;;;;9.02;4.80;;;10.90;99.90;;;;;;5095556;28;20556;-69
2022/01/03 09:17:48;;;;;;;7.32;4.80;;;11.00;99.90;;;;;;5095561;28;20556;-69
2022/01/03 09:20:16;;;;;;;8.85;4.30;;;11.10;99.90;;;;;;5095407;28;20205;-69
2022/01/03 09:22:46;;;;;;;9.27;4.35;;;11.10;99.90;;;;;;5095520;28;20201;-69
2022/01/03 09:30:49;;;;;;;8.95;3.85;;;11.20;99.90;;;;;;5095426;28;20213;-69
2022/01/03 09:33:16;;;;;;;5.05;3.20;;;11.20;99.90;;;;;;5095313;28;20206;-69
2022/01/03 09:35:43;;;;;;;5.30;3.65;;;11.20;99.90;;;;;;5094894;28;20620;-69
2022/01/03 09:38:11;;;;;;;6.78;4.18;;;11.20;99.90;;;;;;5094861;28;20325;-69
2022/01/03 09:40:38;;;;;;;14.13;12.27;;;11.30;99.90;;;;;;5095209;28;20281;-69
2022/01/03 09:43:09;;;;;;;13.75;11.07;;;11.50;99.90;;;;;;5095119;28;20567;-69
2022/01/03 09:45:37;;;;;;;8.63;6.53;;;11.50;99.90;;;;;;5094788;28;20206;-69
2022/01/03 09:48:07;;;;;;;6.78;4.57;;;11.60;99.90;;;;;;5095061;28;20279;-69
2022/01/03 09:50:35;;;;;;;5.20;3.03;;;11.60;99.90;;;;;;5094594;28;20225;-69
2022/01/03 09:53:04;;;;;;;4.35;1.85;;;11.50;99.90;;;;;;5095040;28;20660;-69
2022/01/03 09:55:33;;;;;;;7.90;2.20;;;11.40;99.90;;;;;;5094722;28;20563;-69
2022/01/03 09:58:00;;;;;;;5.50;2.50;;;11.50;99.90;;;;;;5094645;28;20722;-69
2022/01/03 10:00:28;;;;;;;5.32;2.08;;;11.50;99.90;;;;;;5093652;28;20668;-69
2022/01/03 10:02:56;;;;;;;4.47;1.85;;;11.50;99.90;;;;;;5094815;28;20618;-69
2022/01/03 10:05:23;;;;;;;4.75;1.70;;;11.60;99.90;;;;;;5094732;28;20305;-69
2022/01/03 10:07:50;;;;;;;2.40;1.73;;;11.70;99.90;;;;;;5094919;28;20354;-69
2022/01/03 10:10:17;;;;;;;6.85;1.70;;;11.80;99.90;;;;;;5094699;28;20226;-69
2022/01/03 10:12:44;;;;;;;4.45;1.50;;;11.80;99.90;;;;;;5094537;28;20202;-69
2022/01/03 10:15:12;;;;;;;3.15;1.48;;;11.90;99.90;;;;;;5094392;28;20740;-68
2022/01/03 10:17:42;;;;;;;5.20;1.63;;;11.90;99.90;;;;;;5094299;28;20226;-69
2022/01/03 10:20:12;;;;;;;4.18;1.88;;;12.00;99.90;;;;;;5094796;28;20284;-69
2022/01/03 10:22:41;;;;;;;2.97;1.40;;;12.00;99.90;;;;;;5094575;28;20633;-69
2022/01/03 10:25:17;;;;;;;3.90;1.70;;;12.00;99.90;;;;;;5094491;28;20289;-69
2022/01/03 10:27:47;;;;;;;2.35;1.30;;;12.00;99.90;;;;;;5094553;28;20553;-69
2022/01/03 10:30:16;;;;;;;3.10;1.75;;;12.00;99.90;;;;;;5094319;28;20268;-69
2022/01/03 10:32:52;;;;;;;3.55;1.80;;;12.10;99.90;;;;;;5094175;28;20206;-69
2022/01/03 10:35:19;;;;;;;4.03;1.60;;;12.20;99.90;;;;;;5094432;28;20187;-68
2022/01/03 10:37:46;;;;;;;4.88;1.95;;;12.20;99.90;;;;;;5093875;28;20775;-68
2022/01/03 10:40:25;;;;;;;4.53;2.08;;;12.20;99.90;;;;;;5093838;28;20209;-69
2022/01/03 10:42:52;;;;;;;3.15;1.95;;;12.20;99.90;;;;;;5094180;28;20602;-69
2022/01/03 10:45:29;;;;;;;2.47;1.30;;;12.20;99.90;;;;;;5093692;28;20668;-69
2022/01/03 10:47:57;;;;;;;4.50;1.70;;;12.20;99.90;;;;;;5094843;28;20249;-69
2022/01/03 10:50:24;;;;;;;4.22;1.60;;;12.20;99.90;;;;;;5093955;28;20265;-69
2022/01/03 10:52:52;;;;;;;3.42;1.45;;;12.30;99.90;;;;;;5093947;28;20610;-69
2022/01/03 10:55:22;;;;;;;2.20;1.30;;;12.30;99.90;;;;;;5093981;28;20568;-68
2022/01/03 10:57:55;;;;;;;2.65;1.98;;;12.40;99.90;;;;;;5093679;28;20312;-69
2022/01/03 11:00:25;;;;;;;3.72;2.00;;;12.40;99.90;;;;;;5093988;28;20297;-69
2022/01/03 11:03:16;;;;;;;2.97;1.90;;;12.40;99.90;;;;;;5094052;28;20269;-69
2022/01/03 11:05:49;;;;;;;6.68;1.83;;;12.50;99.90;;;;;;5093832;28;20660;-69
2022/01/03 11:11:00;;;;;;;3.25;1.77;;;12.60;99.90;;;;;;5094249;28;20328;-68
2022/01/03 11:13:27;;;;;;;2.42;1.38;;;12.60;99.90;;;;;;5093491;28;20664;-69
2022/01/03 11:15:56;;;;;;;2.95;1.52;;;12.60;99.90;;;;;;5093626;28;20201;-69
2022/01/03 11:18:25;;;;;;;3.70;1.80;;;12.70;99.90;;;;;;5093862;28;20618;-69
2022/01/03 11:21:04;;;;;;;4.50;2.40;;;12.70;99.90;;;;;;5093954;28;20293;-69
2022/01/03 11:23:31;;;;;;;4.40;1.40;;;12.70;99.90;;;;;;5094058;28;20187;-68
2022/01/03 11:25:58;;;;;;;3.53;1.58;;;12.70;99.90;;;;;;5093687;28;20660;-69
2022/01/03 11:28:28;;;;;;;3.38;2.50;;;12.70;99.90;;;;;;5093957;28;20240;-69
2022/01/03 11:30:55;;;;;;;3.10;1.80;;;12.80;99.90;;;;;;5093964;28;20233;-69
2022/01/03 11:33:22;;;;;;;2.97;1.67;;;12.80;99.90;;;;;;5094129;28;20568;-69
2022/01/03 11:35:51;;;;;;;3.28;1.70;;;12.90;99.90;;;;;;5093329;28;20210;-68
2022/01/03 11:38:21;;;;;;;1.67;1.50;;;12.90;99.90;;;;;;5093480;28;20228;-69
2022/01/03 11:40:49;;;;;;;2.53;1.67;;;13.00;99.90;;;;;;5094356;28;20226;-68
2022/01/03 11:43:17;;;;;;;3.20;1.63;;;13.00;99.90;;;;;;5093462;28;20202;-69
2022/01/03 11:45:44;;;;;;;4.18;2.10;;;13.10;99.90;;;;;;5093269;28;20300;-68
2022/01/03 11:48:12;;;;;;;1.63;1.50;;;13.20;99.90;;;;;;5093091;28;20238;-69
2022/01/03 11:50:40;;;;;;;2.70;1.50;;;13.20;99.90;;;;;;5093071;28;20771;-69
2022/01/03 11:53:10;;;;;;;2.30;1.60;;;13.20;99.90;;;;;;5093328;28;20212;-68
2022/01/03 11:55:40;;;;;;;3.17;1.65;;;13.10;99.90;;;;;;5093032;28;20198;-68
2022/01/03 11:58:25;;;;;;;5.15;2.15;;;13.10;99.90;;;;;;5093499;28;20225;-69
2022/01/03 12:03:51;;;;;;;2.50;1.40;;;13.10;99.90;;;;;;5093345;28;20208;-69
2022/01/03 12:06:27;;;;;;;2.40;1.45;;;13.10;99.90;;;;;;5092680;28;20313;-68
2022/01/03 12:09:01;;;;;;;2.83;1.85;;;13.10;99.90;;;;;;5093295;28;20216;-68
2022/01/03 12:11:30;;;;;;;2.20;1.45;;;13.10;99.90;;;;;;5093272;28;20186;-68
2022/01/03 12:13:58;;;;;;;2.50;1.70;;;13.10;99.90;;;;;;5093270;28;20293;-68
2022/01/03 12:16:44;;;;;;;1.80;0.85;;;13.10;99.90;;;;;;5093209;28;20571;-68
2022/01/03 12:19:13;;;;;;;1.40;1.30;;;12.90;99.90;;;;;;5093030;28;20660;-68
2022/01/03 12:22:07;;;;;;;1.88;1.13;;;13.00;99.90;;;;;;5093777;28;20255;-68
2022/01/03 12:24:57;;;;;;;5.88;3.65;;;13.00;99.90;;;;;;5093191;28;20210;-69
2022/01/03 12:27:36;;;;;;;5.18;1.58;;;13.00;99.90;;;;;;5096927;28;20218;-69
2022/01/03 12:30:23;;;;;;;3.53;1.58;;;13.10;99.90;;;;;;5096707;28;20225;-69
2022/01/03 12:33:22;;;;;;;1.85;1.00;;;13.10;99.90;;;;;;5096760;28;20190;-69
2022/01/03 12:35:50;;;;;;;2.33;1.23;;;13.10;99.90;;;;;;5096247;28;20257;-68
2022/01/03 12:38:29;;;;;;;1.65;1.00;;;13.10;99.90;;;;;;5096853;28;20309;-68
2022/01/03 12:41:02;;;;;;;3.00;1.10;;;13.00;99.90;;;;;;5096254;28;20695;-68
2022/01/03 12:43:47;;;;;;;2.50;1.23;;;13.00;99.90;;;;;;5096523;28;20209;-68
2022/01/03 12:46:23;;;;;;;3.40;1.17;;;12.90;99.90;;;;;;5096602;28;20198;-68
2022/01/03 12:48:52;;;;;;;2.45;1.13;;;12.90;99.90;;;;;;5096111;28;20186;-68
2022/01/03 12:51:19;;;;;;;1.30;1.17;;;12.90;99.90;;;;;;5096389;28;20226;-68
2022/01/03 12:53:55;;;;;;;3.58;1.15;;;13.00;99.90;;;;;;5096102;28;20213;-68
2022/01/03 12:56:31;;;;;;;2.28;1.55;;;13.10;99.90;;;;;;5096310;28;20231;-68
2022/01/03 12:58:59;;;;;;;2.17;1.60;;;13.10;99.90;;;;;;5096115;28;20289;-69
2022/01/03 13:01:31;;;;;;;2.63;1.45;;;13.00;99.90;;;;;;5096274;28;20190;-69
2022/01/03 13:04:00;;;;;;;3.97;1.40;;;13.00;99.90;;;;;;5096090;28;20202;-69
2022/01/03 13:06:29;;;;;;;2.65;1.63;;;13.10;99.90;;;;;;5095415;28;20226;-68
2022/01/03 13:09:11;;;;;;;1.65;1.45;;;13.10;99.90;;;;;;5095998;28;20205;-69
2022/01/03 13:11:43;;;;;;;6.22;4.32;;;13.10;99.90;;;;;;5095723;28;20649;-68
2022/01/03 13:14:14;;;;;;;5.78;2.38;;;13.10;99.90;;;;;;5095767;28;20205;-68